sensor_id;sensor_type;location;lat;lon;timestamp;P1;durP1;ratioP1;P2;durP2;ratioP2
21114;SDS011;10715;48.546;9.896;2022-11-20T00:01:17;3.73;;;2.23;;
21114;SDS011;10715;48.546;9.896;2022-11-20T00:03:45;3.90;;;2.23;;
21114;SDS011;10715;48.546;9.896;2022-11-20T00:06:12;2.70;;;2.33;;
21114;SDS011;10715;48.546;9.896;2022-11-20T00:08:40;3.13;;;2.00;;
21114;SDS011;10715;48.546;9.896;2022-11-20T00:11:06;1.80;;;1.70;;
21114;SDS011;10715;48.546;9.896;2022-11-20T00:13:37;4.60;;;2.10;;
21114;SDS011;10715;48.546;9.896;2022-11-20T00:16:04;2.70;;;2.40;;
21114;SDS011;10715;48.546;9.896;2022-11-20T00:18:32;5.70;;;2.03;;
21114;SDS011;10715;48.546;9.896;2022-11-20T00:21:02;6.07;;;3.40;;
21114;SDS011;10715;48.546;9.896;2022-11-20T00:23:32;3.27;;;2.10;;
21114;SDS011;10715;48.546;9.896;2022-11-20T00:26:02;2.37;;;2.17;;
21114;SDS011;10715;48.546;9.896;2022-11-20T00:28:29;4.37;;;3.50;;
21114;SDS011;10715;48.546;9.896;2022-11-20T00:31:04;5.30;;;2.90;;
21114;SDS011;10715;48.546;9.896;2022-11-20T00:33:35;3.33;;;2.90;;
21114;SDS011;10715;48.546;9.896;2022-11-20T00:36:05;3.67;;;1.93;;
21114;SDS011;10715;48.546;9.896;2022-11-20T00:38:32;4.93;;;2.20;;
21114;SDS011;10715;48.546;9.896;2022-11-20T00:40:59;5.57;;;2.40;;
21114;SDS011;10715;48.546;9.896;2022-11-20T00:43:26;4.30;;;2.53;;
21114;SDS011;10715;48.546;9.896;2022-11-20T00:45:59;1.90;;;1.67;;
21114;SDS011;10715;48.546;9.896;2022-11-20T00:48:29;3.47;;;2.20;;
21114;SDS011;10715;48.546;9.896;2022-11-20T00:50:55;3.90;;;2.80;;
21114;SDS011;10715;48.546;9.896;2022-11-20T00:53:22;2.63;;;1.90;;
21114;SDS011;10715;48.546;9.896;2022-11-20T00:55:55;2.00;;;1.80;;
21114;SDS011;10715;48.546;9.896;2022-11-20T00:58:22;4.10;;;2.47;;
21114;SDS011;10715;48.546;9.896;2022-11-20T01:00:49;3.03;;;2.30;;
21114;SDS011;10715;48.546;9.896;2022-11-20T01:03:16;3.87;;;3.57;;
21114;SDS011;10715;48.546;9.896;2022-11-20T01:05:42;2.20;;;2.00;;
21114;SDS011;10715;48.546;9.896;2022-11-20T01:08:08;2.10;;;1.50;;
21114;SDS011;10715;48.546;9.896;2022-11-20T01:10:34;3.77;;;2.13;;
21114;SDS011;10715;48.546;9.896;2022-11-20T01:13:00;2.40;;;2.10;;
21114;SDS011;10715;48.546;9.896;2022-11-20T01:15:44;2.80;;;1.90;;
21114;SDS011;10715;48.546;9.896;2022-11-20T01:18:09;2.63;;;1.93;;
21114;SDS011;10715;48.546;9.896;2022-11-20T01:20:35;1.80;;;1.63;;
21114;SDS011;10715;48.546;9.896;2022-11-20T01:23:02;2.30;;;1.50;;
21114;SDS011;10715;48.546;9.896;2022-11-20T01:25:28;1.70;;;1.53;;
21114;SDS011;10715;48.546;9.896;2022-11-20T01:27:54;4.97;;;2.30;;
21114;SDS011;10715;48.546;9.896;2022-11-20T01:30:20;3.70;;;2.03;;
21114;SDS011;10715;48.546;9.896;2022-11-20T01:32:45;2.27;;;1.80;;
21114;SDS011;10715;48.546;9.896;2022-11-20T01:35:11;5.27;;;2.27;;
21114;SDS011;10715;48.546;9.896;2022-11-20T01:37:37;2.47;;;1.83;;
21114;SDS011;10715;48.546;9.896;2022-11-20T01:40:03;2.50;;;1.63;;
21114;SDS011;10715;48.546;9.896;2022-11-20T01:42:29;3.20;;;2.40;;
21114;SDS011;10715;48.546;9.896;2022-11-20T01:48:17;2.57;;;2.13;;
21114;SDS011;10715;48.546;9.896;2022-11-20T01:50:44;3.27;;;1.60;;
21114;SDS011;10715;48.546;9.896;2022-11-20T01:53:11;2.97;;;2.27;;
21114;SDS011;10715;48.546;9.896;2022-11-20T01:55:43;4.70;;;2.70;;
21114;SDS011;10715;48.546;9.896;2022-11-20T01:58:13;2.27;;;1.90;;
21114;SDS011;10715;48.546;9.896;2022-11-20T02:00:39;2.57;;;2.23;;
21114;SDS011;10715;48.546;9.896;2022-11-20T02:03:09;2.87;;;2.33;;
21114;SDS011;10715;48.546;9.896;2022-11-20T02:08:35;3.80;;;2.43;;
21114;SDS011;10715;48.546;9.896;2022-11-20T02:11:02;3.20;;;2.50;;
21114;SDS011;10715;48.546;9.896;2022-11-20T02:13:28;4.73;;;1.47;;
21114;SDS011;10715;48.546;9.896;2022-11-20T02:16:31;2.90;;;2.00;;
21114;SDS011;10715;48.546;9.896;2022-11-20T02:19:04;1.80;;;1.70;;
21114;SDS011;10715;48.546;9.896;2022-11-20T02:26:38;5.80;;;2.60;;
21114;SDS011;10715;48.546;9.896;2022-11-20T02:29:10;3.43;;;3.00;;
21114;SDS011;10715;48.546;9.896;2022-11-20T02:31:37;3.03;;;2.23;;
21114;SDS011;10715;48.546;9.896;2022-11-20T02:34:06;3.10;;;2.80;;
21114;SDS011;10715;48.546;9.896;2022-11-20T02:36:32;4.83;;;3.10;;
21114;SDS011;10715;48.546;9.896;2022-11-20T02:39:00;3.23;;;2.47;;
21114;SDS011;10715;48.546;9.896;2022-11-20T02:41:30;7.13;;;3.50;;
21114;SDS011;10715;48.546;9.896;2022-11-20T02:44:03;5.10;;;3.70;;
21114;SDS011;10715;48.546;9.896;2022-11-20T02:46:30;4.80;;;3.37;;
21114;SDS011;10715;48.546;9.896;2022-11-20T02:48:57;3.50;;;2.13;;
21114;SDS011;10715;48.546;9.896;2022-11-20T02:51:23;6.27;;;2.63;;
21114;SDS011;10715;48.546;9.896;2022-11-20T02:53:49;5.63;;;3.43;;
21114;SDS011;10715;48.546;9.896;2022-11-20T02:56:15;4.03;;;2.43;;
21114;SDS011;10715;48.546;9.896;2022-11-20T02:58:41;4.77;;;2.50;;
21114;SDS011;10715;48.546;9.896;2022-11-20T03:01:07;3.43;;;2.47;;
21114;SDS011;10715;48.546;9.896;2022-11-20T03:03:32;3.07;;;2.87;;
21114;SDS011;10715;48.546;9.896;2022-11-20T03:05:58;3.03;;;2.73;;
21114;SDS011;10715;48.546;9.896;2022-11-20T03:08:25;3.53;;;1.70;;
21114;SDS011;10715;48.546;9.896;2022-11-20T03:10:51;5.17;;;2.43;;
21114;SDS011;10715;48.546;9.896;2022-11-20T03:13:17;2.20;;;2.00;;
21114;SDS011;10715;48.546;9.896;2022-11-20T03:15:42;2.10;;;1.83;;
21114;SDS011;10715;48.546;9.896;2022-11-20T03:18:08;4.07;;;1.90;;
21114;SDS011;10715;48.546;9.896;2022-11-20T03:20:34;3.00;;;2.57;;
21114;SDS011;10715;48.546;9.896;2022-11-20T03:23:00;2.43;;;1.70;;
21114;SDS011;10715;48.546;9.896;2022-11-20T03:25:26;3.90;;;2.10;;
21114;SDS011;10715;48.546;9.896;2022-11-20T03:27:52;2.80;;;1.80;;
21114;SDS011;10715;48.546;9.896;2022-11-20T03:30:19;3.60;;;2.97;;
21114;SDS011;10715;48.546;9.896;2022-11-20T03:32:44;2.50;;;2.30;;
21114;SDS011;10715;48.546;9.896;2022-11-20T03:35:10;2.13;;;1.93;;
21114;SDS011;10715;48.546;9.896;2022-11-20T03:37:36;2.37;;;1.67;;
21114;SDS011;10715;48.546;9.896;2022-11-20T03:40:02;4.57;;;1.60;;
21114;SDS011;10715;48.546;9.896;2022-11-20T03:42:28;2.50;;;2.03;;
21114;SDS011;10715;48.546;9.896;2022-11-20T03:45:13;3.10;;;2.60;;
21114;SDS011;10715;48.546;9.896;2022-11-20T03:47:40;3.67;;;3.37;;
21114;SDS011;10715;48.546;9.896;2022-11-20T03:50:06;3.93;;;2.50;;
21114;SDS011;10715;48.546;9.896;2022-11-20T03:52:33;4.00;;;3.30;;
21114;SDS011;10715;48.546;9.896;2022-11-20T03:54:58;3.63;;;3.10;;
21114;SDS011;10715;48.546;9.896;2022-11-20T03:57:24;3.50;;;2.77;;
21114;SDS011;10715;48.546;9.896;2022-11-20T03:59:50;3.40;;;2.53;;
21114;SDS011;10715;48.546;9.896;2022-11-20T04:02:15;4.90;;;2.90;;
21114;SDS011;10715;48.546;9.896;2022-11-20T04:04:41;7.20;;;3.30;;
21114;SDS011;10715;48.546;9.896;2022-11-20T04:07:07;4.60;;;3.10;;
21114;SDS011;10715;48.546;9.896;2022-11-20T04:09:33;4.93;;;3.20;;
21114;SDS011;10715;48.546;9.896;2022-11-20T04:11:58;3.13;;;2.63;;
21114;SDS011;10715;48.546;9.896;2022-11-20T04:14:24;4.70;;;3.13;;
21114;SDS011;10715;48.546;9.896;2022-11-20T04:16:50;11.80;;;3.17;;
21114;SDS011;10715;48.546;9.896;2022-11-20T04:19:16;3.80;;;3.20;;
21114;SDS011;10715;48.546;9.896;2022-11-20T04:21:42;7.13;;;3.80;;
21114;SDS011;10715;48.546;9.896;2022-11-20T04:24:09;4.50;;;3.50;;
21114;SDS011;10715;48.546;9.896;2022-11-20T04:26:36;6.10;;;3.87;;
21114;SDS011;10715;48.546;9.896;2022-11-20T04:29:02;6.70;;;3.57;;
21114;SDS011;10715;48.546;9.896;2022-11-20T04:31:29;4.53;;;3.50;;
21114;SDS011;10715;48.546;9.896;2022-11-20T04:34:00;8.30;;;4.40;;
21114;SDS011;10715;48.546;9.896;2022-11-20T04:36:27;4.23;;;3.33;;
21114;SDS011;10715;48.546;9.896;2022-11-20T04:38:54;6.00;;;3.47;;
21114;SDS011;10715;48.546;9.896;2022-11-20T04:41:22;4.47;;;3.90;;
21114;SDS011;10715;48.546;9.896;2022-11-20T04:43:50;13.80;;;7.17;;
21114;SDS011;10715;48.546;9.896;2022-11-20T04:46:17;8.17;;;5.90;;
21114;SDS011;10715;48.546;9.896;2022-11-20T04:48:44;9.07;;;5.23;;
21114;SDS011;10715;48.546;9.896;2022-11-20T04:51:10;9.80;;;5.53;;
21114;SDS011;10715;48.546;9.896;2022-11-20T04:53:37;9.37;;;5.87;;
21114;SDS011;10715;48.546;9.896;2022-11-20T04:56:04;8.43;;;4.60;;
21114;SDS011;10715;48.546;9.896;2022-11-20T04:58:32;5.60;;;4.60;;
21114;SDS011;10715;48.546;9.896;2022-11-20T05:03:28;8.27;;;5.23;;
21114;SDS011;10715;48.546;9.896;2022-11-20T05:05:54;6.67;;;4.60;;
21114;SDS011;10715;48.546;9.896;2022-11-20T05:08:20;6.33;;;5.53;;
21114;SDS011;10715;48.546;9.896;2022-11-20T05:10:45;14.30;;;6.40;;
21114;SDS011;10715;48.546;9.896;2022-11-20T05:13:11;7.63;;;5.70;;
21114;SDS011;10715;48.546;9.896;2022-11-20T05:15:37;5.60;;;4.00;;
21114;SDS011;10715;48.546;9.896;2022-11-20T05:18:03;6.30;;;4.80;;
21114;SDS011;10715;48.546;9.896;2022-11-20T05:20:28;6.30;;;4.10;;
21114;SDS011;10715;48.546;9.896;2022-11-20T05:22:57;9.10;;;5.40;;
21114;SDS011;10715;48.546;9.896;2022-11-20T05:25:23;8.23;;;4.00;;
21114;SDS011;10715;48.546;9.896;2022-11-20T05:27:49;4.80;;;3.93;;
21114;SDS011;10715;48.546;9.896;2022-11-20T05:30:15;5.67;;;4.37;;
21114;SDS011;10715;48.546;9.896;2022-11-20T05:32:40;5.37;;;4.87;;
21114;SDS011;10715;48.546;9.896;2022-11-20T05:35:06;6.90;;;4.80;;
21114;SDS011;10715;48.546;9.896;2022-11-20T05:37:32;6.77;;;5.23;;
21114;SDS011;10715;48.546;9.896;2022-11-20T05:39:58;6.07;;;5.17;;
21114;SDS011;10715;48.546;9.896;2022-11-20T05:42:25;7.03;;;6.33;;
21114;SDS011;10715;48.546;9.896;2022-11-20T05:45:00;7.43;;;5.30;;
21114;SDS011;10715;48.546;9.896;2022-11-20T05:47:30;9.70;;;5.13;;
21114;SDS011;10715;48.546;9.896;2022-11-20T05:49:58;12.33;;;6.70;;
21114;SDS011;10715;48.546;9.896;2022-11-20T05:52:23;11.73;;;5.43;;
21114;SDS011;10715;48.546;9.896;2022-11-20T05:54:49;6.73;;;6.03;;
21114;SDS011;10715;48.546;9.896;2022-11-20T05:57:15;7.37;;;4.83;;
21114;SDS011;10715;48.546;9.896;2022-11-20T05:59:42;6.20;;;5.70;;
21114;SDS011;10715;48.546;9.896;2022-11-20T06:02:07;11.60;;;5.60;;
21114;SDS011;10715;48.546;9.896;2022-11-20T06:04:33;5.10;;;4.57;;
21114;SDS011;10715;48.546;9.896;2022-11-20T06:06:59;5.90;;;5.33;;
21114;SDS011;10715;48.546;9.896;2022-11-20T06:09:24;8.57;;;4.90;;
21114;SDS011;10715;48.546;9.896;2022-11-20T06:11:50;8.63;;;6.53;;
21114;SDS011;10715;48.546;9.896;2022-11-20T06:14:16;8.53;;;6.80;;
21114;SDS011;10715;48.546;9.896;2022-11-20T06:16:41;6.90;;;6.30;;
21114;SDS011;10715;48.546;9.896;2022-11-20T06:19:07;6.20;;;5.70;;
21114;SDS011;10715;48.546;9.896;2022-11-20T06:21:33;7.97;;;5.43;;
21114;SDS011;10715;48.546;9.896;2022-11-20T06:23:58;6.67;;;6.07;;
21114;SDS011;10715;48.546;9.896;2022-11-20T06:26:25;7.73;;;4.90;;
21114;SDS011;10715;48.546;9.896;2022-11-20T06:28:52;4.77;;;4.37;;
21114;SDS011;10715;48.546;9.896;2022-11-20T06:31:20;8.70;;;6.60;;
21114;SDS011;10715;48.546;9.896;2022-11-20T06:33:47;7.10;;;4.87;;
21114;SDS011;10715;48.546;9.896;2022-11-20T06:36:13;9.43;;;5.47;;
21114;SDS011;10715;48.546;9.896;2022-11-20T06:38:41;13.77;;;6.93;;
21114;SDS011;10715;48.546;9.896;2022-11-20T06:41:08;12.03;;;7.00;;
21114;SDS011;10715;48.546;9.896;2022-11-20T06:43:37;10.80;;;7.60;;
21114;SDS011;10715;48.546;9.896;2022-11-20T06:46:03;6.23;;;5.63;;
21114;SDS011;10715;48.546;9.896;2022-11-20T06:48:29;8.23;;;7.47;;
21114;SDS011;10715;48.546;9.896;2022-11-20T06:50:55;9.53;;;7.07;;
21114;SDS011;10715;48.546;9.896;2022-11-20T06:53:22;6.80;;;4.90;;
21114;SDS011;10715;48.546;9.896;2022-11-20T06:55:48;7.03;;;6.33;;
21114;SDS011;10715;48.546;9.896;2022-11-20T06:58:15;5.53;;;5.03;;
21114;SDS011;10715;48.546;9.896;2022-11-20T07:00:41;6.00;;;5.50;;
21114;SDS011;10715;48.546;9.896;2022-11-20T07:03:08;5.50;;;4.93;;
21114;SDS011;10715;48.546;9.896;2022-11-20T07:05:35;7.30;;;5.23;;
21114;SDS011;10715;48.546;9.896;2022-11-20T07:08:01;5.10;;;3.20;;
21114;SDS011;10715;48.546;9.896;2022-11-20T07:10:27;3.70;;;1.90;;
21114;SDS011;10715;48.546;9.896;2022-11-20T07:12:53;3.90;;;1.80;;
21114;SDS011;10715;48.546;9.896;2022-11-20T07:15:20;4.37;;;2.67;;
21114;SDS011;10715;48.546;9.896;2022-11-20T07:17:47;4.40;;;2.27;;
21114;SDS011;10715;48.546;9.896;2022-11-20T07:20:13;3.93;;;2.30;;
21114;SDS011;10715;48.546;9.896;2022-11-20T07:22:39;1.97;;;1.30;;
21114;SDS011;10715;48.546;9.896;2022-11-20T07:25:06;2.60;;;1.97;;
21114;SDS011;10715;48.546;9.896;2022-11-20T07:27:32;2.53;;;2.33;;
21114;SDS011;10715;48.546;9.896;2022-11-20T07:29:58;3.07;;;1.53;;
21114;SDS011;10715;48.546;9.896;2022-11-20T07:32:24;2.60;;;2.37;;
21114;SDS011;10715;48.546;9.896;2022-11-20T07:34:49;1.97;;;1.67;;
21114;SDS011;10715;48.546;9.896;2022-11-20T07:37:15;1.70;;;1.60;;
21114;SDS011;10715;48.546;9.896;2022-11-20T07:39:41;5.03;;;2.30;;
21114;SDS011;10715;48.546;9.896;2022-11-20T07:42:07;2.80;;;2.17;;
21114;SDS011;10715;48.546;9.896;2022-11-20T07:44:33;2.27;;;1.63;;
21114;SDS011;10715;48.546;9.896;2022-11-20T07:46:59;2.00;;;1.90;;
21114;SDS011;10715;48.546;9.896;2022-11-20T07:49:25;2.50;;;2.00;;
21114;SDS011;10715;48.546;9.896;2022-11-20T07:51:51;1.90;;;1.80;;
21114;SDS011;10715;48.546;9.896;2022-11-20T07:54:18;1.50;;;1.33;;
21114;SDS011;10715;48.546;9.896;2022-11-20T07:56:45;2.53;;;1.30;;
21114;SDS011;10715;48.546;9.896;2022-11-20T07:59:11;2.70;;;1.97;;
21114;SDS011;10715;48.546;9.896;2022-11-20T08:01:40;1.60;;;1.30;;
21114;SDS011;10715;48.546;9.896;2022-11-20T08:04:06;1.83;;;1.20;;
21114;SDS011;10715;48.546;9.896;2022-11-20T08:06:32;1.80;;;1.50;;
21114;SDS011;10715;48.546;9.896;2022-11-20T08:08:57;3.40;;;2.40;;
21114;SDS011;10715;48.546;9.896;2022-11-20T08:11:23;2.00;;;1.80;;
21114;SDS011;10715;48.546;9.896;2022-11-20T08:14:08;2.40;;;1.70;;
21114;SDS011;10715;48.546;9.896;2022-11-20T08:16:36;2.63;;;2.00;;
21114;SDS011;10715;48.546;9.896;2022-11-20T08:19:02;2.90;;;2.30;;
21114;SDS011;10715;48.546;9.896;2022-11-20T08:21:29;3.00;;;2.80;;
21114;SDS011;10715;48.546;9.896;2022-11-20T08:23:56;2.40;;;1.63;;
21114;SDS011;10715;48.546;9.896;2022-11-20T08:26:22;1.33;;;1.17;;
21114;SDS011;10715;48.546;9.896;2022-11-20T08:28:48;4.40;;;2.17;;
21114;SDS011;10715;48.546;9.896;2022-11-20T08:31:14;3.80;;;2.80;;
21114;SDS011;10715;48.546;9.896;2022-11-20T08:33:40;4.53;;;2.57;;
21114;SDS011;10715;48.546;9.896;2022-11-20T08:36:06;5.97;;;2.67;;
21114;SDS011;10715;48.546;9.896;2022-11-20T08:38:32;2.70;;;1.63;;
21114;SDS011;10715;48.546;9.896;2022-11-20T08:40:58;2.40;;;1.90;;
21114;SDS011;10715;48.546;9.896;2022-11-20T08:43:43;1.90;;;1.47;;
21114;SDS011;10715;48.546;9.896;2022-11-20T08:46:09;1.67;;;1.20;;
21114;SDS011;10715;48.546;9.896;2022-11-20T08:48:35;1.37;;;1.27;;
21114;SDS011;10715;48.546;9.896;2022-11-20T08:51:01;1.67;;;1.50;;
21114;SDS011;10715;48.546;9.896;2022-11-20T08:53:27;1.93;;;1.27;;
21114;SDS011;10715;48.546;9.896;2022-11-20T08:55:53;2.23;;;1.93;;
21114;SDS011;10715;48.546;9.896;2022-11-20T08:58:19;1.80;;;1.07;;
21114;SDS011;10715;48.546;9.896;2022-11-20T09:00:44;2.10;;;1.60;;
21114;SDS011;10715;48.546;9.896;2022-11-20T09:03:10;1.40;;;1.20;;
21114;SDS011;10715;48.546;9.896;2022-11-20T09:05:38;1.43;;;1.17;;
21114;SDS011;10715;48.546;9.896;2022-11-20T09:08:04;1.20;;;1.00;;
21114;SDS011;10715;48.546;9.896;2022-11-20T09:10:29;1.40;;;0.70;;
21114;SDS011;10715;48.546;9.896;2022-11-20T09:12:55;1.03;;;0.73;;
21114;SDS011;10715;48.546;9.896;2022-11-20T09:15:21;2.50;;;0.70;;
21114;SDS011;10715;48.546;9.896;2022-11-20T09:17:55;1.57;;;1.47;;
21114;SDS011;10715;48.546;9.896;2022-11-20T09:20:25;1.13;;;0.70;;
21114;SDS011;10715;48.546;9.896;2022-11-20T09:22:51;1.37;;;0.93;;
21114;SDS011;10715;48.546;9.896;2022-11-20T09:25:17;1.80;;;0.80;;
21114;SDS011;10715;48.546;9.896;2022-11-20T09:27:43;1.57;;;0.70;;
21114;SDS011;10715;48.546;9.896;2022-11-20T09:30:11;1.33;;;0.77;;
21114;SDS011;10715;48.546;9.896;2022-11-20T09:32:41;1.00;;;0.70;;
21114;SDS011;10715;48.546;9.896;2022-11-20T09:35:07;1.17;;;0.60;;
21114;SDS011;10715;48.546;9.896;2022-11-20T09:37:34;1.10;;;0.70;;
21114;SDS011;10715;48.546;9.896;2022-11-20T09:39:59;1.40;;;0.80;;
21114;SDS011;10715;48.546;9.896;2022-11-20T09:42:47;1.20;;;0.57;;
21114;SDS011;10715;48.546;9.896;2022-11-20T09:54:16;1.10;;;0.70;;
21114;SDS011;10715;48.546;9.896;2022-11-20T09:56:47;1.10;;;0.97;;
21114;SDS011;10715;48.546;9.896;2022-11-20T09:59:29;1.10;;;0.70;;
21114;SDS011;10715;48.546;9.896;2022-11-20T10:10:54;0.90;;;0.53;;
21114;SDS011;10715;48.546;9.896;2022-11-20T10:14:03;1.37;;;0.90;;
21114;SDS011;10715;48.546;9.896;2022-11-20T10:22:07;2.60;;;1.33;;
21114;SDS011;10715;48.546;9.896;2022-11-20T10:30:16;1.00;;;0.70;;
21114;SDS011;10715;48.546;9.896;2022-11-20T10:32:59;2.57;;;1.17;;
21114;SDS011;10715;48.546;9.896;2022-11-20T10:35:40;1.23;;;0.77;;
21114;SDS011;10715;48.546;9.896;2022-11-20T10:38:14;2.67;;;0.60;;
21114;SDS011;10715;48.546;9.896;2022-11-20T10:40:54;0.87;;;0.60;;
21114;SDS011;10715;48.546;9.896;2022-11-20T10:43:44;0.90;;;0.50;;
21114;SDS011;10715;48.546;9.896;2022-11-20T10:46:20;1.70;;;0.70;;
21114;SDS011;10715;48.546;9.896;2022-11-20T10:48:47;1.10;;;0.70;;
21114;SDS011;10715;48.546;9.896;2022-11-20T10:56:41;1.10;;;0.70;;
21114;SDS011;10715;48.546;9.896;2022-11-20T11:02:20;1.43;;;1.33;;
21114;SDS011;10715;48.546;9.896;2022-11-20T11:04:47;1.07;;;0.73;;
21114;SDS011;10715;48.546;9.896;2022-11-20T11:07:17;1.50;;;0.60;;
21114;SDS011;10715;48.546;9.896;2022-11-20T11:09:53;1.00;;;0.50;;
21114;SDS011;10715;48.546;9.896;2022-11-20T11:12:20;1.17;;;0.60;;
21114;SDS011;10715;48.546;9.896;2022-11-20T11:14:49;1.00;;;0.57;;
21114;SDS011;10715;48.546;9.896;2022-11-20T11:22:44;0.70;;;0.40;;
21114;SDS011;10715;48.546;9.896;2022-11-20T11:25:18;1.00;;;0.50;;
21114;SDS011;10715;48.546;9.896;2022-11-20T11:30:43;0.77;;;0.40;;
21114;SDS011;10715;48.546;9.896;2022-11-20T11:33:10;0.60;;;0.40;;
21114;SDS011;10715;48.546;9.896;2022-11-20T11:36:02;0.67;;;0.37;;
21114;SDS011;10715;48.546;9.896;2022-11-20T11:38:42;0.60;;;0.30;;
21114;SDS011;10715;48.546;9.896;2022-11-20T11:41:09;0.90;;;0.40;;
21114;SDS011;10715;48.546;9.896;2022-11-20T11:43:53;0.77;;;0.40;;
21114;SDS011;10715;48.546;9.896;2022-11-20T11:46:40;0.70;;;0.40;;
21114;SDS011;10715;48.546;9.896;2022-11-20T11:49:18;1.10;;;0.40;;
21114;SDS011;10715;48.546;9.896;2022-11-20T11:57:41;0.80;;;0.40;;
21114;SDS011;10715;48.546;9.896;2022-11-20T12:00:13;1.43;;;0.40;;
21114;SDS011;10715;48.546;9.896;2022-11-20T12:05:18;0.93;;;0.47;;
21114;SDS011;10715;48.546;9.896;2022-11-20T12:11:11;1.00;;;0.47;;
21114;SDS011;10715;48.546;9.896;2022-11-20T12:16:30;1.03;;;0.73;;
21114;SDS011;10715;48.546;9.896;2022-11-20T12:19:00;0.80;;;0.40;;
21114;SDS011;10715;48.546;9.896;2022-11-20T12:24:18;0.70;;;0.40;;
21114;SDS011;10715;48.546;9.896;2022-11-20T12:30:15;1.50;;;0.40;;
21114;SDS011;10715;48.546;9.896;2022-11-20T12:56:43;1.20;;;0.73;;
21114;SDS011;10715;48.546;9.896;2022-11-20T13:01:50;1.27;;;0.70;;
21114;SDS011;10715;48.546;9.896;2022-11-20T13:04:50;0.70;;;0.50;;
21114;SDS011;10715;48.546;9.896;2022-11-20T13:07:25;0.60;;;0.40;;
21114;SDS011;10715;48.546;9.896;2022-11-20T13:09:53;3.90;;;1.60;;
21114;SDS011;10715;48.546;9.896;2022-11-20T13:12:23;1.00;;;0.60;;
21114;SDS011;10715;48.546;9.896;2022-11-20T13:18:10;1.17;;;0.80;;
21114;SDS011;10715;48.546;9.896;2022-11-20T13:20:41;0.90;;;0.50;;
21114;SDS011;10715;48.546;9.896;2022-11-20T13:23:08;0.60;;;0.40;;
21114;SDS011;10715;48.546;9.896;2022-11-20T13:25:36;0.63;;;0.40;;
21114;SDS011;10715;48.546;9.896;2022-11-20T13:28:04;0.80;;;0.40;;
21114;SDS011;10715;48.546;9.896;2022-11-20T13:30:33;1.33;;;0.70;;
21114;SDS011;10715;48.546;9.896;2022-11-20T13:33:06;2.00;;;0.77;;
21114;SDS011;10715;48.546;9.896;2022-11-20T13:35:55;1.30;;;0.50;;
21114;SDS011;10715;48.546;9.896;2022-11-20T13:38:24;0.60;;;0.30;;
21114;SDS011;10715;48.546;9.896;2022-11-20T13:40:51;0.80;;;0.50;;
21114;SDS011;10715;48.546;9.896;2022-11-20T13:46:00;5.00;;;0.90;;
21114;SDS011;10715;48.546;9.896;2022-11-20T13:48:26;0.97;;;0.50;;
21114;SDS011;10715;48.546;9.896;2022-11-20T14:02:21;0.80;;;0.30;;
21114;SDS011;10715;48.546;9.896;2022-11-20T14:04:48;0.67;;;0.33;;
21114;SDS011;10715;48.546;9.896;2022-11-20T14:07:17;0.97;;;0.30;;
21114;SDS011;10715;48.546;9.896;2022-11-20T14:09:49;0.83;;;0.40;;
21114;SDS011;10715;48.546;9.896;2022-11-20T14:12:21;0.70;;;0.40;;
21114;SDS011;10715;48.546;9.896;2022-11-20T14:14:50;1.00;;;0.60;;
21114;SDS011;10715;48.546;9.896;2022-11-20T14:17:18;0.60;;;0.40;;
21114;SDS011;10715;48.546;9.896;2022-11-20T14:19:47;1.00;;;0.70;;
21114;SDS011;10715;48.546;9.896;2022-11-20T14:22:19;0.67;;;0.50;;
21114;SDS011;10715;48.546;9.896;2022-11-20T14:24:47;0.73;;;0.43;;
21114;SDS011;10715;48.546;9.896;2022-11-20T14:27:20;0.60;;;0.40;;
21114;SDS011;10715;48.546;9.896;2022-11-20T14:29:47;0.83;;;0.60;;
21114;SDS011;10715;48.546;9.896;2022-11-20T14:32:16;0.60;;;0.40;;
21114;SDS011;10715;48.546;9.896;2022-11-20T14:34:44;0.63;;;0.57;;
21114;SDS011;10715;48.546;9.896;2022-11-20T14:37:17;0.60;;;0.30;;
21114;SDS011;10715;48.546;9.896;2022-11-20T14:39:48;0.70;;;0.50;;
21114;SDS011;10715;48.546;9.896;2022-11-20T14:42:26;0.90;;;0.50;;
21114;SDS011;10715;48.546;9.896;2022-11-20T14:44:59;0.90;;;0.50;;
21114;SDS011;10715;48.546;9.896;2022-11-20T14:47:28;1.20;;;0.60;;
21114;SDS011;10715;48.546;9.896;2022-11-20T14:49:55;7.10;;;0.80;;
21114;SDS011;10715;48.546;9.896;2022-11-20T14:52:23;0.90;;;0.50;;
21114;SDS011;10715;48.546;9.896;2022-11-20T14:54:51;0.77;;;0.43;;
21114;SDS011;10715;48.546;9.896;2022-11-20T14:57:23;1.00;;;0.63;;
21114;SDS011;10715;48.546;9.896;2022-11-20T14:59:49;1.50;;;0.83;;
21114;SDS011;10715;48.546;9.896;2022-11-20T15:02:15;1.37;;;0.60;;
21114;SDS011;10715;48.546;9.896;2022-11-20T15:04:48;1.13;;;0.77;;
21114;SDS011;10715;48.546;9.896;2022-11-20T15:07:25;1.83;;;0.50;;
21114;SDS011;10715;48.546;9.896;2022-11-20T15:10:21;5.13;;;1.63;;
21114;SDS011;10715;48.546;9.896;2022-11-20T15:12:56;0.90;;;0.60;;
21114;SDS011;10715;48.546;9.896;2022-11-20T15:15:46;1.10;;;0.70;;
21114;SDS011;10715;48.546;9.896;2022-11-20T15:18:16;2.90;;;0.83;;
21114;SDS011;10715;48.546;9.896;2022-11-20T15:20:44;0.90;;;0.60;;
21114;SDS011;10715;48.546;9.896;2022-11-20T15:23:11;0.90;;;0.50;;
21114;SDS011;10715;48.546;9.896;2022-11-20T15:25:39;1.00;;;0.60;;
21114;SDS011;10715;48.546;9.896;2022-11-20T15:28:09;2.00;;;0.50;;
21114;SDS011;10715;48.546;9.896;2022-11-20T15:30:57;0.90;;;0.60;;
21114;SDS011;10715;48.546;9.896;2022-11-20T15:33:23;2.20;;;0.50;;
21114;SDS011;10715;48.546;9.896;2022-11-20T15:35:48;2.47;;;0.70;;
21114;SDS011;10715;48.546;9.896;2022-11-20T15:38:14;1.00;;;0.60;;
21114;SDS011;10715;48.546;9.896;2022-11-20T15:40:40;0.80;;;0.60;;
21114;SDS011;10715;48.546;9.896;2022-11-20T15:43:06;1.20;;;0.60;;
21114;SDS011;10715;48.546;9.896;2022-11-20T15:45:36;1.20;;;0.60;;
21114;SDS011;10715;48.546;9.896;2022-11-20T15:48:24;4.20;;;0.70;;
21114;SDS011;10715;48.546;9.896;2022-11-20T15:50:56;2.13;;;0.93;;
21114;SDS011;10715;48.546;9.896;2022-11-20T15:53:23;2.73;;;0.87;;
21114;SDS011;10715;48.546;9.896;2022-11-20T15:55:48;3.20;;;1.10;;
21114;SDS011;10715;48.546;9.896;2022-11-20T15:58:14;4.00;;;0.80;;
21114;SDS011;10715;48.546;9.896;2022-11-20T16:00:42;1.80;;;1.23;;
21114;SDS011;10715;48.546;9.896;2022-11-20T16:03:11;1.70;;;0.80;;
21114;SDS011;10715;48.546;9.896;2022-11-20T16:05:38;4.93;;;2.70;;
21114;SDS011;10715;48.546;9.896;2022-11-20T16:08:04;7.10;;;1.80;;
21114;SDS011;10715;48.546;9.896;2022-11-20T16:10:30;3.07;;;2.13;;
21114;SDS011;10715;48.546;9.896;2022-11-20T16:12:56;3.27;;;2.03;;
21114;SDS011;10715;48.546;9.896;2022-11-20T16:15:40;8.20;;;2.03;;
21114;SDS011;10715;48.546;9.896;2022-11-20T16:18:19;3.03;;;1.93;;
21114;SDS011;10715;48.546;9.896;2022-11-20T16:20:47;2.37;;;1.77;;
21114;SDS011;10715;48.546;9.896;2022-11-20T16:23:16;3.77;;;1.07;;
21114;SDS011;10715;48.546;9.896;2022-11-20T16:25:42;5.13;;;2.03;;
21114;SDS011;10715;48.546;9.896;2022-11-20T16:28:09;3.00;;;1.80;;
21114;SDS011;10715;48.546;9.896;2022-11-20T16:30:36;2.57;;;0.83;;
21114;SDS011;10715;48.546;9.896;2022-11-20T16:33:02;1.10;;;0.70;;
21114;SDS011;10715;48.546;9.896;2022-11-20T16:35:31;1.30;;;0.80;;
21114;SDS011;10715;48.546;9.896;2022-11-20T16:37:57;2.50;;;0.50;;
21114;SDS011;10715;48.546;9.896;2022-11-20T16:40:24;0.90;;;0.60;;
21114;SDS011;10715;48.546;9.896;2022-11-20T16:42:50;2.37;;;0.60;;
21114;SDS011;10715;48.546;9.896;2022-11-20T16:45:17;2.63;;;1.10;;
21114;SDS011;10715;48.546;9.896;2022-11-20T16:47:43;1.67;;;1.00;;
21114;SDS011;10715;48.546;9.896;2022-11-20T16:50:09;1.67;;;0.90;;
21114;SDS011;10715;48.546;9.896;2022-11-20T16:52:35;0.73;;;0.50;;
21114;SDS011;10715;48.546;9.896;2022-11-20T16:55:01;0.83;;;0.57;;
21114;SDS011;10715;48.546;9.896;2022-11-20T16:57:28;0.73;;;0.50;;
21114;SDS011;10715;48.546;9.896;2022-11-20T16:59:55;1.47;;;0.77;;
21114;SDS011;10715;48.546;9.896;2022-11-20T17:02:21;0.83;;;0.50;;